Agency, Iowa
Current Conditions -  °F | °C
As of 8:53 PM on Friday 31 Oct 2014 (Local Time) from KOTM Reporting Station
Clear Clear  
Wind Chill: 19°   Ceiling: Unl
Heat Index: 27°   Visibility: 10mi
Dew Point: 19°   Wind: 8mph
Humidity: 72%   Direction: 350°N
Pressure: 30.45"   Gusts: NA
Location:  41°N, 92.31°W
Report Text: KOTM 010153Z AUTO 35007KT 10SM CLR M03/M07 A3045 RMK AO2 SLP321 T10281072
Loading
Personal Weather Stations






























Interactive Weather Map
Tropical Storm Tracking
New forecast layout! Learn more

10-Day Weather Forecast

Advertisements
Track Severe Weather on mobile